Time;durP1;ratioP1;P1;durP2;ratioP2;P2;SDS_P1;SDS_P2;PMS_P1;PMS_P2;Temp;Humidity;BMP_temperature;BMP_pressure;BME280_temperature;BME280_humidity;BME280_pressure;Samples;Min_cycle;Max_cycle;Signal;HPM_P1;HPM_P2
2023/09/24 00:01:19;;;;;;;3.70;3.40;;;;;;;;;;4992276;28;20213;-58
2023/09/24 00:03:46;;;;;;;5.50;3.90;;;;;;;;;;4992423;28;20198;-56
2023/09/24 00:06:12;;;;;;;4.43;4.03;;;;;;;;;;4991967;28;20836;-56
2023/09/24 00:08:39;;;;;;;5.23;4.40;;;;;;;;;;4991923;28;20198;-57
2023/09/24 00:11:05;;;;;;;5.67;4.10;;;;;;;;;;4991192;28;20277;-56
2023/09/24 00:13:35;;;;;;;4.40;3.80;;;;;;;;;;4992259;28;20212;-56
2023/09/24 00:16:05;;;;;;;3.80;3.50;;;;;;;;;;4992187;28;20210;-57
2023/09/24 00:18:32;;;;;;;3.63;3.33;;;;;;;;;;4992076;28;20207;-57
2023/09/24 00:20:58;;;;;;;3.90;3.50;;;;;;;;;;4991515;28;20204;-56
2023/09/24 00:23:24;;;;;;;4.23;3.93;;;;;;;;;;4991777;28;20274;-57
2023/09/24 00:25:50;;;;;;;3.97;3.47;;;;;;;;;;4992105;28;20257;-56
2023/09/24 00:28:16;;;;;;;3.40;3.10;;;;;;;;;;4986419;28;20202;-55
2023/09/24 00:30:43;;;;;;;3.30;3.10;;;;;;;;;;4991953;28;20743;-55
2023/09/24 00:33:09;;;;;;;3.40;3.10;;;;;;;;;;4991784;28;20234;-55
2023/09/24 00:35:35;;;;;;;4.10;3.40;;;;;;;;;;4990078;28;20225;-55
2023/09/24 00:38:01;;;;;;;3.77;3.47;;;;;;;;;;4991927;28;20281;-55
2023/09/24 00:40:28;;;;;;;3.60;3.30;;;;;;;;;;4992123;28;20198;-55
2023/09/24 00:42:54;;;;;;;4.20;3.10;;;;;;;;;;4991965;28;20195;-55
2023/09/24 00:45:25;;;;;;;2.70;2.50;;;;;;;;;;4991983;28;20202;-55
2023/09/24 00:47:53;;;;;;;3.43;2.90;;;;;;;;;;4988366;28;20194;-55
2023/09/24 00:50:19;;;;;;;3.10;2.80;;;;;;;;;;4990586;28;20199;-55
2023/09/24 00:52:46;;;;;;;3.93;2.80;;;;;;;;;;4990425;28;20226;-55
2023/09/24 00:55:13;;;;;;;2.70;2.50;;;;;;;;;;4986677;28;20210;-55
2023/09/24 00:57:39;;;;;;;3.77;2.50;;;;;;;;;;4988544;28;20205;-55
2023/09/24 01:00:16;;;;;;;2.87;2.50;;;;;;;;;;4986952;28;20190;-55
2023/09/24 01:02:44;;;;;;;2.70;2.50;;;;;;;;;;4988661;28;20194;-55
2023/09/24 01:05:14;;;;;;;3.40;2.70;;;;;;;;;;4986601;28;20622;-55
2023/09/24 01:07:42;;;;;;;2.93;2.73;;;;;;;;;;4988710;28;20214;-55
2023/09/24 01:10:08;;;;;;;3.20;2.90;;;;;;;;;;4986689;28;20285;-56
2023/09/24 01:12:39;;;;;;;2.73;2.53;;;;;;;;;;4988650;28;20261;-55
2023/09/24 01:15:08;;;;;;;3.10;2.80;;;;;;;;;;4986915;28;20198;-55
2023/09/24 01:17:35;;;;;;;3.20;3.00;;;;;;;;;;4988432;28;20266;-55
2023/09/24 01:20:05;;;;;;;3.70;3.40;;;;;;;;;;4990180;28;20917;-55
2023/09/24 01:22:32;;;;;;;4.30;3.90;;;;;;;;;;4993500;28;20273;-55
2023/09/24 01:25:00;;;;;;;6.43;4.07;;;;;;;;;;4995580;28;20225;-55
2023/09/24 01:27:26;;;;;;;4.53;4.13;;;;;;;;;;4995480;28;20199;-55
2023/09/24 01:29:53;;;;;;;4.63;4.00;;;;;;;;;;4995406;28;20210;-55
2023/09/24 01:32:19;;;;;;;4.17;3.87;;;;;;;;;;4995239;28;20226;-55
2023/09/24 01:34:46;;;;;;;4.23;3.83;;;;;;;;;;4995220;28;20206;-55
2023/09/24 01:37:14;;;;;;;4.00;3.70;;;;;;;;;;4994915;28;20603;-55
2023/09/24 01:39:42;;;;;;;3.90;3.60;;;;;;;;;;4995023;28;20325;-55
2023/09/24 01:42:13;;;;;;;3.93;3.60;;;;;;;;;;4995054;28;20285;-55
2023/09/24 01:44:39;;;;;;;3.77;3.47;;;;;;;;;;4995200;28;20206;-55
2023/09/24 01:47:06;;;;;;;3.90;3.60;;;;;;;;;;4995208;28;20202;-55
2023/09/24 01:49:32;;;;;;;3.83;3.50;;;;;;;;;;4995051;28;20230;-55
2023/09/24 01:51:58;;;;;;;3.80;3.50;;;;;;;;;;4994774;28;20229;-55
2023/09/24 01:54:25;;;;;;;3.40;3.20;;;;;;;;;;4995045;28;20209;-55
2023/09/24 01:56:55;;;;;;;3.93;3.60;;;;;;;;;;4994945;28;20206;-55
2023/09/24 01:59:22;;;;;;;4.30;3.90;;;;;;;;;;4994731;28;20618;-55
2023/09/24 02:01:48;;;;;;;3.80;3.50;;;;;;;;;;4994826;28;20222;-55
2023/09/24 02:04:14;;;;;;;3.50;3.20;;;;;;;;;;4994614;28;20206;-55
2023/09/24 02:06:41;;;;;;;3.20;3.00;;;;;;;;;;4994592;28;20221;-55
2023/09/24 02:09:07;;;;;;;3.33;3.07;;;;;;;;;;4994482;28;20210;-55
2023/09/24 02:11:33;;;;;;;5.67;2.90;;;;;;;;;;4994662;28;20230;-56
2023/09/24 02:14:00;;;;;;;3.00;2.80;;;;;;;;;;4994618;28;20198;-55
2023/09/24 02:16:27;;;;;;;3.07;2.87;;;;;;;;;;4992536;28;20206;-56
2023/09/24 02:18:53;;;;;;;3.77;3.33;;;;;;;;;;4992886;28;20202;-55
2023/09/24 02:21:19;;;;;;;3.50;3.20;;;;;;;;;;4994478;28;20202;-55
2023/09/24 02:23:45;;;;;;;3.30;3.00;;;;;;;;;;4994470;28;20625;-55
2023/09/24 02:26:13;;;;;;;5.97;3.53;;;;;;;;;;4994296;28;20277;-55
2023/09/24 02:28:39;;;;;;;4.10;3.60;;;;;;;;;;4994386;28;20233;-55
2023/09/24 02:31:07;;;;;;;3.97;3.57;;;;;;;;;;4994112;28;20252;-55
2023/09/24 02:33:34;;;;;;;5.90;5.30;;;;;;;;;;4993539;28;20209;-55
2023/09/24 02:36:00;;;;;;;5.17;4.77;;;;;;;;;;4993979;28;20218;-55
2023/09/24 02:38:26;;;;;;;5.30;4.80;;;;;;;;;;4994007;28;20249;-55
2023/09/24 02:40:56;;;;;;;4.97;4.57;;;;;;;;;;4994160;28;20221;-54
2023/09/24 02:43:23;;;;;;;6.73;5.10;;;;;;;;;;4993946;28;20222;-55
2023/09/24 02:45:49;;;;;;;4.70;4.30;;;;;;;;;;4993947;28;20202;-55
2023/09/24 02:48:19;;;;;;;5.83;5.30;;;;;;;;;;4993874;28;20285;-54
2023/09/24 02:50:46;;;;;;;5.63;5.03;;;;;;;;;;4993963;28;20739;-55
2023/09/24 02:53:12;;;;;;;5.23;4.83;;;;;;;;;;4993565;28;20440;-56
2023/09/24 02:55:38;;;;;;;5.40;4.90;;;;;;;;;;4993874;28;20225;-55
2023/09/24 02:58:04;;;;;;;5.70;5.00;;;;;;;;;;4993753;28;20202;-55
2023/09/24 03:00:35;;;;;;;5.37;4.87;;;;;;;;;;4992332;28;20198;-56
2023/09/24 03:03:03;;;;;;;5.37;4.87;;;;;;;;;;4993647;28;20202;-55
2023/09/24 03:05:31;;;;;;;6.13;4.50;;;;;;;;;;4993629;28;20695;-55
2023/09/24 03:07:59;;;;;;;6.53;5.77;;;;;;;;;;4993260;28;20277;-56
2023/09/24 03:10:26;;;;;;;5.20;4.70;;;;;;;;;;4993566;28;20256;-56
2023/09/24 03:12:52;;;;;;;6.40;4.70;;;;;;;;;;4993211;28;20276;-55
2023/09/24 03:15:20;;;;;;;5.13;4.70;;;;;;;;;;4993388;28;20217;-55
2023/09/24 03:17:46;;;;;;;5.57;4.80;;;;;;;;;;4993429;28;20574;-55
2023/09/24 03:20:16;;;;;;;6.17;5.60;;;;;;;;;;4993350;28;20216;-55
2023/09/24 03:22:48;;;;;;;6.43;5.80;;;;;;;;;;4993352;28;20689;-55
2023/09/24 03:25:16;;;;;;;10.17;9.10;;;;;;;;;;4993139;28;20572;-56
2023/09/24 03:27:42;;;;;;;7.47;6.83;;;;;;;;;;4993114;28;20198;-55
2023/09/24 03:30:14;;;;;;;7.93;7.23;;;;;;;;;;4993145;28;20205;-55
2023/09/24 03:32:40;;;;;;;9.20;7.70;;;;;;;;;;4992784;28;20233;-56
2023/09/24 03:35:09;;;;;;;8.77;7.87;;;;;;;;;;4988940;28;20257;-56
2023/09/24 03:37:37;;;;;;;9.23;8.33;;;;;;;;;;4993004;28;20265;-55
2023/09/24 03:40:06;;;;;;;10.97;9.93;;;;;;;;;;4993126;28;20232;-55
2023/09/24 03:42:32;;;;;;;13.13;9.97;;;;;;;;;;4993070;28;20207;-55
2023/09/24 03:44:58;;;;;;;11.47;10.20;;;;;;;;;;4992751;28;20638;-56
2023/09/24 03:47:24;;;;;;;12.20;11.00;;;;;;;;;;4992769;28;20206;-55
2023/09/24 03:49:50;;;;;;;11.63;10.53;;;;;;;;;;4992984;28;20201;-56
2023/09/24 03:52:16;;;;;;;10.87;9.87;;;;;;;;;;4992696;28;20230;-56
2023/09/24 03:54:42;;;;;;;10.87;9.87;;;;;;;;;;4992856;28;20253;-56
2023/09/24 03:57:09;;;;;;;11.07;10.07;;;;;;;;;;4992460;28;20197;-56
2023/09/24 03:59:36;;;;;;;11.57;10.37;;;;;;;;;;4992784;28;20727;-55
2023/09/24 04:02:02;;;;;;;10.33;9.30;;;;;;;;;;4992720;28;20201;-56
2023/09/24 04:04:28;;;;;;;10.30;9.30;;;;;;;;;;4992806;28;20202;-56
2023/09/24 04:06:54;;;;;;;11.77;9.73;;;;;;;;;;4992555;28;20210;-56
2023/09/24 04:09:20;;;;;;;11.33;10.23;;;;;;;;;;4992593;28;20206;-56
2023/09/24 04:11:46;;;;;;;11.70;10.50;;;;;;;;;;4992623;28;20629;-56
2023/09/24 04:14:16;;;;;;;10.93;9.90;;;;;;;;;;4992360;28;20241;-56
2023/09/24 04:16:42;;;;;;;12.13;10.87;;;;;;;;;;4992476;28;20213;-55
2023/09/24 04:19:08;;;;;;;12.77;11.57;;;;;;;;;;4992460;28;20678;-56
2023/09/24 04:21:34;;;;;;;11.33;10.33;;;;;;;;;;4992613;28;20285;-56
2023/09/24 04:24:00;;;;;;;11.37;10.20;;;;;;;;;;4992404;28;20198;-56
2023/09/24 04:26:26;;;;;;;10.20;9.20;;;;;;;;;;4992565;28;20272;-56
2023/09/24 04:28:55;;;;;;;10.67;9.70;;;;;;;;;;4992473;28;20205;-55
2023/09/24 04:31:23;;;;;;;12.63;11.37;;;;;;;;;;4992185;28;20264;-55
2023/09/24 04:33:49;;;;;;;13.33;11.90;;;;;;;;;;4992466;28;20224;-56
2023/09/24 04:36:17;;;;;;;13.00;11.40;;;;;;;;;;4992027;28;20222;-56
2023/09/24 04:38:44;;;;;;;11.30;10.30;;;;;;;;;;4992144;28;20265;-55
2023/09/24 04:41:10;;;;;;;11.37;10.27;;;;;;;;;;4992132;28;20202;-56
2023/09/24 04:43:37;;;;;;;12.50;11.23;;;;;;;;;;4992010;28;20206;-56
2023/09/24 04:46:06;;;;;;;12.00;10.90;;;;;;;;;;4992149;28;20230;-56
2023/09/24 04:48:35;;;;;;;12.17;10.97;;;;;;;;;;4992107;28;20616;-56
2023/09/24 04:51:01;;;;;;;12.80;11.50;;;;;;;;;;4992041;28;20222;-56
2023/09/24 04:53:27;;;;;;;15.17;12.00;;;;;;;;;;4991756;28;20229;-56
2023/09/24 04:55:53;;;;;;;12.20;11.03;;;;;;;;;;4991841;28;20209;-56
2023/09/24 04:58:19;;;;;;;12.77;11.47;;;;;;;;;;4994811;28;20218;-56
2023/09/24 05:00:45;;;;;;;14.83;12.60;;;;;;;;;;4995821;28;20202;-56
2023/09/24 05:03:11;;;;;;;16.53;14.17;;;;;;;;;;4995608;28;20197;-56
2023/09/24 05:05:42;;;;;;;13.30;12.00;;;;;;;;;;4995709;28;20563;-55
2023/09/24 05:08:08;;;;;;;15.33;13.70;;;;;;;;;;4995489;28;20209;-56
2023/09/24 05:10:36;;;;;;;16.30;14.23;;;;;;;;;;4995584;28;20221;-55
2023/09/24 05:13:03;;;;;;;18.80;16.50;;;;;;;;;;4995447;28;20236;-55
2023/09/24 05:15:29;;;;;;;22.90;17.73;;;;;;;;;;4995522;28;20198;-55
2023/09/24 05:17:55;;;;;;;27.83;19.20;;;;;;;;;;4995326;28;20194;-55
2023/09/24 05:20:21;;;;;;;29.47;20.83;;;;;;;;;;4995319;28;20198;-56
2023/09/24 05:22:49;;;;;;;26.50;18.80;;;;;;;;;;4995456;28;20661;-55
2023/09/24 05:25:15;;;;;;;27.17;20.67;;;;;;;;;;4994935;28;20252;-56
2023/09/24 05:27:41;;;;;;;23.67;18.17;;;;;;;;;;4994959;28;20307;-56
2023/09/24 05:30:08;;;;;;;21.93;16.80;;;;;;;;;;4990647;28;20206;-56
2023/09/24 05:32:34;;;;;;;20.10;16.43;;;;;;;;;;4995266;28;20233;-55
2023/09/24 05:35:00;;;;;;;18.03;15.43;;;;;;;;;;4994982;28;20285;-55
2023/09/24 05:37:26;;;;;;;20.07;15.80;;;;;;;;;;4994613;28;20211;-55
2023/09/24 05:39:53;;;;;;;21.40;16.77;;;;;;;;;;4995006;28;20198;-56
2023/09/24 05:42:20;;;;;;;23.93;17.20;;;;;;;;;;4994829;28;20214;-56
2023/09/24 05:44:46;;;;;;;24.83;17.80;;;;;;;;;;4994836;28;20230;-55
2023/09/24 05:47:12;;;;;;;25.23;18.97;;;;;;;;;;4994810;28;20194;-56
2023/09/24 05:49:38;;;;;;;26.50;18.43;;;;;;;;;;4994691;28;20198;-56
2023/09/24 05:52:04;;;;;;;22.83;17.83;;;;;;;;;;4994630;28;20224;-56
2023/09/24 05:54:30;;;;;;;19.17;16.53;;;;;;;;;;4994565;28;20206;-55
2023/09/24 05:56:58;;;;;;;21.33;17.93;;;;;;;;;;4994596;28;20270;-56
2023/09/24 05:59:24;;;;;;;22.03;17.37;;;;;;;;;;4994465;28;20218;-56
2023/09/24 06:01:50;;;;;;;23.37;17.53;;;;;;;;;;4994686;28;20209;-56
2023/09/24 06:04:16;;;;;;;21.00;17.60;;;;;;;;;;4994468;28;20281;-55
2023/09/24 06:06:42;;;;;;;23.50;17.90;;;;;;;;;;4994378;28;20599;-56
2023/09/24 06:09:09;;;;;;;20.87;16.77;;;;;;;;;;4993100;28;20198;-56
2023/09/24 06:11:36;;;;;;;24.83;18.50;;;;;;;;;;4994471;28;20202;-55
2023/09/24 06:14:08;;;;;;;24.63;18.63;;;;;;;;;;4994457;28;20272;-56
2023/09/24 06:16:35;;;;;;;21.43;17.90;;;;;;;;;;4994528;28;20217;-56
2023/09/24 06:19:01;;;;;;;18.53;16.57;;;;;;;;;;4994416;28;20198;-56
2023/09/24 06:21:27;;;;;;;20.20;16.33;;;;;;;;;;4994166;28;20201;-56
2023/09/24 06:23:55;;;;;;;20.40;16.10;;;;;;;;;;4994114;28;20293;-56
2023/09/24 06:26:21;;;;;;;22.30;16.17;;;;;;;;;;4994175;28;20213;-56
2023/09/24 06:28:47;;;;;;;20.80;16.33;;;;;;;;;;4994011;28;20198;-56
2023/09/24 06:31:14;;;;;;;20.53;15.63;;;;;;;;;;4993873;28;20603;-56
2023/09/24 06:33:40;;;;;;;17.20;15.47;;;;;;;;;;4993986;28;20253;-56
2023/09/24 06:36:09;;;;;;;15.40;13.40;;;;;;;;;;4993820;28;20697;-56
2023/09/24 06:38:35;;;;;;;16.47;13.57;;;;;;;;;;4994003;28;20244;-56
2023/09/24 06:41:02;;;;;;;15.23;12.70;;;;;;;;;;4993743;28;20202;-56
2023/09/24 06:43:28;;;;;;;15.10;12.00;;;;;;;;;;4993862;28;20302;-56
2023/09/24 06:45:54;;;;;;;15.50;12.80;;;;;;;;;;4993514;28;20206;-57
2023/09/24 06:48:22;;;;;;;12.90;11.60;;;;;;;;;;4993743;28;20225;-56
2023/09/24 06:50:48;;;;;;;13.60;10.53;;;;;;;;;;4993625;28;20213;-56
2023/09/24 06:53:14;;;;;;;11.93;10.73;;;;;;;;;;4993202;28;20233;-56
2023/09/24 06:55:40;;;;;;;12.70;10.47;;;;;;;;;;4993496;28;20198;-56
2023/09/24 06:58:06;;;;;;;12.47;10.23;;;;;;;;;;4993377;28;20209;-56
2023/09/24 07:00:32;;;;;;;10.90;9.73;;;;;;;;;;4993514;28;20642;-56
2023/09/24 07:02:59;;;;;;;12.00;10.53;;;;;;;;;;4993463;28;20245;-56
2023/09/24 07:05:26;;;;;;;12.33;10.47;;;;;;;;;;4993295;28;20603;-56
2023/09/24 07:07:53;;;;;;;12.97;10.70;;;;;;;;;;4993318;28;20206;-56
2023/09/24 07:10:22;;;;;;;12.40;11.00;;;;;;;;;;4993359;28;20198;-56
2023/09/24 07:12:48;;;;;;;11.60;9.90;;;;;;;;;;4993228;28;20309;-56
2023/09/24 07:15:14;;;;;;;14.50;10.80;;;;;;;;;;4993142;28;20237;-56
2023/09/24 07:17:40;;;;;;;11.13;9.93;;;;;;;;;;4993038;28;20214;-56
2023/09/24 07:20:08;;;;;;;11.87;9.40;;;;;;;;;;4992664;28;20676;-56
2023/09/24 07:22:35;;;;;;;11.30;10.10;;;;;;;;;;4993019;28;20660;-56
2023/09/24 07:25:02;;;;;;;12.80;9.53;;;;;;;;;;4993452;28;20210;-56
2023/09/24 07:27:28;;;;;;;12.43;9.17;;;;;;;;;;4992994;28;20237;-56
2023/09/24 07:29:55;;;;;;;8.63;7.83;;;;;;;;;;4992923;28;20198;-56
2023/09/24 07:32:21;;;;;;;9.83;8.83;;;;;;;;;;4992633;28;20230;-56
2023/09/24 07:34:47;;;;;;;10.20;8.67;;;;;;;;;;4992826;28;20217;-56
2023/09/24 07:37:14;;;;;;;11.07;8.80;;;;;;;;;;4992677;28;20228;-56
2023/09/24 07:39:41;;;;;;;10.87;9.73;;;;;;;;;;4992306;28;20242;-56
2023/09/24 07:42:07;;;;;;;10.43;9.43;;;;;;;;;;4992413;28;20299;-56
2023/09/24 07:44:33;;;;;;;10.17;9.17;;;;;;;;;;4992671;28;20257;-57
2023/09/24 07:47:00;;;;;;;10.67;9.67;;;;;;;;;;4992729;28;20202;-56
2023/09/24 07:49:26;;;;;;;11.80;9.67;;;;;;;;;;4992667;28;20198;-56
2023/09/24 07:51:52;;;;;;;10.77;9.60;;;;;;;;;;4992558;28;20222;-56
2023/09/24 07:54:19;;;;;;;10.37;9.47;;;;;;;;;;4991711;28;20684;-56
2023/09/24 07:56:46;;;;;;;11.70;9.10;;;;;;;;;;4991993;28;20213;-56
2023/09/24 07:59:12;;;;;;;9.87;8.77;;;;;;;;;;4992439;28;20736;-56
2023/09/24 08:01:38;;;;;;;9.27;8.37;;;;;;;;;;5010045;28;20193;-56
2023/09/24 08:04:05;;;;;;;9.13;7.60;;;;;;;;;;5011924;28;20609;-56
2023/09/24 08:06:31;;;;;;;9.57;8.73;;;;;;;;;;5011821;28;20202;-56
2023/09/24 08:08:58;;;;;;;9.67;8.60;;;;;;;;;;5012072;28;20193;-56
2023/09/24 08:11:24;;;;;;;10.50;7.97;;;;;;;;;;5011872;28;20675;-56
2023/09/24 08:13:52;;;;;;;9.53;7.83;;;;;;;;;;5011901;28;20252;-56
2023/09/24 08:16:18;;;;;;;8.83;7.83;;;;;;;;;;5011920;28;20259;-56
2023/09/24 08:18:44;;;;;;;10.77;7.90;;;;;;;;;;5012082;28;20205;-56
2023/09/24 08:21:10;;;;;;;9.13;7.83;;;;;;;;;;5011989;28;20200;-56
2023/09/24 08:23:36;;;;;;;8.57;7.77;;;;;;;;;;5012064;28;20201;-57
2023/09/24 08:26:02;;;;;;;7.63;6.83;;;;;;;;;;5012121;28;20194;-56
2023/09/24 08:28:28;;;;;;;7.30;6.60;;;;;;;;;;5010354;28;20308;-56
2023/09/24 08:30:56;;;;;;;6.87;6.10;;;;;;;;;;5010351;28;20738;-57
2023/09/24 08:33:22;;;;;;;7.53;6.43;;;;;;;;;;5014974;28;20283;-56
2023/09/24 08:35:48;;;;;;;6.80;6.10;;;;;;;;;;5016121;28;20221;-56
2023/09/24 08:38:14;;;;;;;9.00;6.20;;;;;;;;;;5015728;28;20247;-56
2023/09/24 08:40:40;;;;;;;9.50;7.40;;;;;;;;;;5015960;28;20783;-56
2023/09/24 08:43:12;;;;;;;7.13;6.30;;;;;;;;;;5015689;28;20198;-56
2023/09/24 08:45:38;;;;;;;8.43;7.63;;;;;;;;;;5015683;28;20615;-56
2023/09/24 08:48:07;;;;;;;7.97;6.93;;;;;;;;;;5015729;28;20285;-56
2023/09/24 08:50:34;;;;;;;7.27;6.57;;;;;;;;;;5015683;28;20206;-56
2023/09/24 08:53:01;;;;;;;7.43;6.13;;;;;;;;;;5015514;28;20256;-56
2023/09/24 08:55:27;;;;;;;7.83;7.03;;;;;;;;;;5015311;28;20190;-56
2023/09/24 08:57:53;;;;;;;6.73;6.03;;;;;;;;;;5015355;28;20660;-56
2023/09/24 09:00:20;;;;;;;7.80;7.00;;;;;;;;;;5015445;28;20232;-56
2023/09/24 09:02:46;;;;;;;8.03;7.33;;;;;;;;;;5015310;28;20733;-56
2023/09/24 09:05:25;;;;;;;7.77;6.67;;;;;;;;;;5015129;28;20290;-57
2023/09/24 09:07:55;;;;;;;9.93;8.57;;;;;;;;;;5015368;28;20216;-56
2023/09/24 09:10:24;;;;;;;5.83;5.07;;;;;;;;;;5014959;28;20606;-57
2023/09/24 09:12:51;;;;;;;8.40;5.30;;;;;;;;;;5015329;28;20257;-57
2023/09/24 09:15:17;;;;;;;5.27;4.60;;;;;;;;;;5015117;28;20272;-56
2023/09/24 09:17:43;;;;;;;6.77;4.90;;;;;;;;;;5014924;28;20206;-56
2023/09/24 09:20:10;;;;;;;5.43;4.87;;;;;;;;;;5014722;28;20193;-56
2023/09/24 09:22:38;;;;;;;7.43;4.03;;;;;;;;;;5014839;28;20202;-56
2023/09/24 09:25:05;;;;;;;6.17;3.80;;;;;;;;;;5014863;28;20244;-55
2023/09/24 09:27:32;;;;;;;5.60;3.87;;;;;;;;;;5014670;28;20276;-56
2023/09/24 09:30:10;;;;;;;7.33;4.00;;;;;;;;;;5014896;28;20222;-55
2023/09/24 09:32:37;;;;;;;6.53;4.37;;;;;;;;;;5014863;28;20771;-55
2023/09/24 09:35:03;;;;;;;6.50;3.60;;;;;;;;;;5014680;28;20220;-61
2023/09/24 09:37:29;;;;;;;7.37;3.73;;;;;;;;;;5014327;28;20207;-59
2023/09/24 09:39:57;;;;;;;4.17;3.40;;;;;;;;;;5014706;28;20213;-56
2023/09/24 09:42:25;;;;;;;5.67;3.53;;;;;;;;;;5014489;28;20207;-56
2023/09/24 09:44:52;;;;;;;4.63;3.10;;;;;;;;;;5014452;28;20200;-54
2023/09/24 09:47:20;;;;;;;5.20;3.90;;;;;;;;;;5014387;28;20660;-55
2023/09/24 09:49:48;;;;;;;5.23;4.10;;;;;;;;;;5014548;28;20239;-57
2023/09/24 09:52:16;;;;;;;5.60;3.70;;;;;;;;;;5014050;28;20237;-55
2023/09/24 09:54:43;;;;;;;6.80;3.20;;;;;;;;;;5014415;28;20280;-55
2023/09/24 09:57:11;;;;;;;4.63;3.33;;;;;;;;;;5014279;28;20488;-56
2023/09/24 09:59:38;;;;;;;6.90;3.23;;;;;;;;;;5014163;28;20237;-56
2023/09/24 10:02:04;;;;;;;5.90;3.40;;;;;;;;;;5014347;28;20233;-55
2023/09/24 10:04:30;;;;;;;5.27;3.30;;;;;;;;;;5013986;28;20621;-55
2023/09/24 10:06:56;;;;;;;3.77;2.80;;;;;;;;;;5014045;28;20200;-55
2023/09/24 10:09:35;;;;;;;4.53;2.90;;;;;;;;;;5014095;28;20229;-55
2023/09/24 10:12:06;;;;;;;5.07;3.50;;;;;;;;;;5013955;28;20566;-55
2023/09/24 10:14:34;;;;;;;4.63;2.97;;;;;;;;;;5014209;28;20208;-55
2023/09/24 10:17:19;;;;;;;4.77;3.60;;;;;;;;;;5012397;28;20225;-55
2023/09/24 10:19:48;;;;;;;3.93;3.07;;;;;;;;;;5014217;28;20190;-56
2023/09/24 10:22:28;;;;;;;5.83;3.40;;;;;;;;;;5013608;28;20636;-55
2023/09/24 10:24:54;;;;;;;7.07;3.20;;;;;;;;;;5013904;28;20226;-55
2023/09/24 10:27:20;;;;;;;4.57;2.87;;;;;;;;;;5013697;28;20200;-55
2023/09/24 10:30:01;;;;;;;5.70;4.23;;;;;;;;;;5013485;28;20237;-56
2023/09/24 10:32:29;;;;;;;4.87;3.17;;;;;;;;;;5013392;28;20287;-55
2023/09/24 10:35:09;;;;;;;6.10;3.33;;;;;;;;;;5013473;28;20225;-55
2023/09/24 10:37:37;;;;;;;3.87;2.97;;;;;;;;;;5013345;28;20209;-54
2023/09/24 10:40:04;;;;;;;8.30;3.43;;;;;;;;;;5013461;28;20225;-54
2023/09/24 10:42:31;;;;;;;6.00;3.30;;;;;;;;;;5013226;28;20198;-54
2023/09/24 10:45:14;;;;;;;4.90;3.47;;;;;;;;;;5013049;28;20661;-54
2023/09/24 10:47:42;;;;;;;4.80;3.03;;;;;;;;;;5012838;28;20209;-54
2023/09/24 10:50:15;;;;;;;4.17;3.00;;;;;;;;;;5013272;28;20201;-55
2023/09/24 10:52:47;;;;;;;5.67;3.60;;;;;;;;;;5013066;28;20229;-55
2023/09/24 10:55:13;;;;;;;5.90;3.70;;;;;;;;;;5012171;28;20573;-54
2023/09/24 10:57:43;;;;;;;6.30;4.03;;;;;;;;;;5012849;28;20288;-54
2023/09/24 11:00:15;;;;;;;4.37;3.40;;;;;;;;;;5012987;28;20256;-54
2023/09/24 11:02:43;;;;;;;5.97;3.73;;;;;;;;;;5013168;28;20213;-54
2023/09/24 11:05:09;;;;;;;5.93;3.73;;;;;;;;;;5012157;28;20711;-55
2023/09/24 11:07:35;;;;;;;4.97;3.07;;;;;;;;;;5012382;28;20206;-55
2023/09/24 11:10:01;;;;;;;4.73;3.03;;;;;;;;;;5013030;28;20679;-54
2023/09/24 11:12:27;;;;;;;3.80;2.93;;;;;;;;;;5012590;28;20688;-54
2023/09/24 11:14:53;;;;;;;4.37;3.30;;;;;;;;;;5012740;28;20237;-54
2023/09/24 11:17:20;;;;;;;4.37;3.37;;;;;;;;;;5012627;28;20232;-54
2023/09/24 11:19:48;;;;;;;4.30;3.07;;;;;;;;;;5012536;28;20205;-54
2023/09/24 11:22:18;;;;;;;3.23;2.63;;;;;;;;;;5012129;28;20212;-54
2023/09/24 11:24:44;;;;;;;3.23;2.60;;;;;;;;;;5012476;28;20205;-54
2023/09/24 11:27:10;;;;;;;3.93;2.73;;;;;;;;;;5012242;28;20212;-54
2023/09/24 11:29:36;;;;;;;6.20;2.67;;;;;;;;;;5012357;28;20200;-55
2023/09/24 11:32:02;;;;;;;4.60;2.70;;;;;;;;;;5012156;28;20197;-55
2023/09/24 11:34:29;;;;;;;2.93;2.63;;;;;;;;;;5012175;28;20283;-54
2023/09/24 11:36:56;;;;;;;4.03;2.60;;;;;;;;;;5012106;28;20814;-54
2023/09/24 11:39:22;;;;;;;3.60;2.47;;;;;;;;;;5012009;28;20238;-54
2023/09/24 11:41:49;;;;;;;3.13;2.60;;;;;;;;;;5012372;28;20282;-54
2023/09/24 11:44:16;;;;;;;5.03;2.50;;;;;;;;;;5011977;28;20191;-55
2023/09/24 11:46:43;;;;;;;4.93;2.33;;;;;;;;;;5012107;28;20755;-54
2023/09/24 11:49:09;;;;;;;3.93;2.53;;;;;;;;;;5012065;28;20254;-54
2023/09/24 11:51:35;;;;;;;4.90;2.67;;;;;;;;;;5011989;28;20213;-54
2023/09/24 11:54:03;;;;;;;3.13;2.30;;;;;;;;;;5011883;28;20543;-54
2023/09/24 11:56:31;;;;;;;3.33;2.30;;;;;;;;;;5011996;28;20622;-54
2023/09/24 11:58:59;;;;;;;4.27;2.07;;;;;;;;;;5012113;28;20199;-55
2023/09/24 12:01:25;;;;;;;2.60;2.13;;;;;;;;;;5011738;28;20203;-54
2023/09/24 12:03:53;;;;;;;4.23;2.13;;;;;;;;;;5011843;28;20265;-54
2023/09/24 12:06:19;;;;;;;2.77;1.97;;;;;;;;;;5011600;28;20233;-55
2023/09/24 12:08:45;;;;;;;3.43;2.00;;;;;;;;;;5011943;28;20199;-54
2023/09/24 12:11:12;;;;;;;4.50;2.00;;;;;;;;;;5011860;28;20202;-54
2023/09/24 12:13:38;;;;;;;3.43;2.00;;;;;;;;;;5011567;28;20226;-54
2023/09/24 12:16:04;;;;;;;2.23;1.83;;;;;;;;;;5011692;28;20230;-54
2023/09/24 12:18:30;;;;;;;5.70;2.40;;;;;;;;;;5011566;28;20228;-54
2023/09/24 12:20:57;;;;;;;3.10;2.10;;;;;;;;;;5011618;28;20675;-54
2023/09/24 12:23:23;;;;;;;3.47;1.97;;;;;;;;;;5011468;28;20203;-54
2023/09/24 12:25:49;;;;;;;3.70;1.97;;;;;;;;;;5011839;28;20209;-54
2023/09/24 12:28:16;;;;;;;2.43;1.67;;;;;;;;;;5011446;28;20252;-54
2023/09/24 12:30:43;;;;;;;6.23;1.60;;;;;;;;;;5011369;28;20267;-54
2023/09/24 12:33:09;;;;;;;2.37;1.67;;;;;;;;;;5011356;28;20232;-54
2023/09/24 12:35:37;;;;;;;3.50;1.57;;;;;;;;;;5011115;28;20243;-54
2023/09/24 12:38:04;;;;;;;3.80;1.87;;;;;;;;;;5011414;28;20243;-54
2023/09/24 12:40:30;;;;;;;3.37;1.90;;;;;;;;;;5011242;28;20198;-54
2023/09/24 12:42:56;;;;;;;2.70;1.60;;;;;;;;;;5011460;28;20357;-54
2023/09/24 12:45:23;;;;;;;2.70;1.80;;;;;;;;;;5011358;28;20248;-54
2023/09/24 12:47:49;;;;;;;3.03;1.40;;;;;;;;;;5011468;28;20234;-54
2023/09/24 12:50:15;;;;;;;2.00;1.30;;;;;;;;;;5011247;28;20190;-54
2023/09/24 12:52:44;;;;;;;1.77;1.40;;;;;;;;;;5009156;28;20696;-54
2023/09/24 12:55:10;;;;;;;3.03;1.70;;;;;;;;;;5011018;28;20211;-54
2023/09/24 12:57:36;;;;;;;2.03;1.43;;;;;;;;;;5010954;28;20201;-54
2023/09/24 13:00:08;;;;;;;1.87;1.53;;;;;;;;;;5011077;28;20194;-54
2023/09/24 13:02:36;;;;;;;4.07;1.70;;;;;;;;;;5010940;28;20259;-55
2023/09/24 13:05:02;;;;;;;3.23;1.30;;;;;;;;;;5011083;28;20203;-54
2023/09/24 13:07:28;;;;;;;2.57;1.43;;;;;;;;;;5010809;28;20199;-54
2023/09/24 13:09:54;;;;;;;3.10;1.60;;;;;;;;;;5010856;28;20266;-54
2023/09/24 13:12:20;;;;;;;3.77;1.60;;;;;;;;;;5010764;28;20277;-54
2023/09/24 13:14:46;;;;;;;2.50;1.43;;;;;;;;;;5011007;28;20204;-54
2023/09/24 13:17:12;;;;;;;2.60;1.40;;;;;;;;;;5010829;28;20221;-54
2023/09/24 13:19:39;;;;;;;4.07;1.70;;;;;;;;;;5013810;28;20203;-54
2023/09/24 13:22:05;;;;;;;3.17;1.57;;;;;;;;;;5014418;28;20202;-54
2023/09/24 13:24:32;;;;;;;2.57;1.50;;;;;;;;;;5014484;28;20208;-54
2023/09/24 13:26:58;;;;;;;2.47;1.33;;;;;;;;;;5014531;28;20203;-54
2023/09/24 13:29:24;;;;;;;1.87;1.30;;;;;;;;;;5014325;28;20719;-54
2023/09/24 13:31:50;;;;;;;2.07;1.37;;;;;;;;;;5014548;28;20198;-54
2023/09/24 13:34:16;;;;;;;2.33;1.40;;;;;;;;;;5014301;28;20230;-54
2023/09/24 13:36:44;;;;;;;3.20;1.30;;;;;;;;;;5014039;28;20229;-54
2023/09/24 13:39:10;;;;;;;2.30;1.30;;;;;;;;;;5014368;28;20597;-54
2023/09/24 13:41:37;;;;;;;3.27;1.43;;;;;;;;;;5014263;28;20281;-54
2023/09/24 13:44:03;;;;;;;3.13;1.57;;;;;;;;;;5014327;28;20198;-54
2023/09/24 13:46:29;;;;;;;2.23;1.50;;;;;;;;;;5014044;28;20288;-54
2023/09/24 13:48:57;;;;;;;2.10;1.30;;;;;;;;;;5014137;28;20304;-55
2023/09/24 13:51:23;;;;;;;2.37;1.20;;;;;;;;;;5013924;28;20251;-54
2023/09/24 13:53:51;;;;;;;2.20;1.30;;;;;;;;;;5014155;28;20257;-54
2023/09/24 13:56:17;;;;;;;2.67;1.27;;;;;;;;;;5014116;28;20559;-55
2023/09/24 13:58:43;;;;;;;1.43;1.20;;;;;;;;;;5013746;28;20656;-53
2023/09/24 14:01:10;;;;;;;1.30;1.13;;;;;;;;;;5013522;28;20293;-56
2023/09/24 14:03:36;;;;;;;2.23;1.30;;;;;;;;;;5013695;28;20201;-54
2023/09/24 14:06:02;;;;;;;3.30;1.30;;;;;;;;;;5013827;28;20220;-54
2023/09/24 14:14:06;;;;;;;2.30;1.40;;;;;;;;;;5013490;28;20243;-54
2023/09/24 14:16:32;;;;;;;4.23;1.50;;;;;;;;;;5012372;28;20205;-55
2023/09/24 14:18:58;;;;;;;2.83;1.70;;;;;;;;;;5013359;28;20203;-55
2023/09/24 14:21:24;;;;;;;2.20;1.30;;;;;;;;;;5013169;28;20202;-54
2023/09/24 14:23:50;;;;;;;2.43;1.30;;;;;;;;;;5013584;28;20212;-54
2023/09/24 14:26:16;;;;;;;2.40;1.20;;;;;;;;;;5013396;28;20193;-54
2023/09/24 14:28:43;;;;;;;2.17;1.57;;;;;;;;;;5013429;28;20259;-54
2023/09/24 14:31:09;;;;;;;3.07;1.50;;;;;;;;;;5012473;28;20197;-53
2023/09/24 14:33:35;;;;;;;2.77;1.50;;;;;;;;;;5013296;28;20256;-55
2023/09/24 14:36:02;;;;;;;2.30;1.50;;;;;;;;;;5013656;28;20222;-53
2023/09/24 14:38:28;;;;;;;1.30;1.17;;;;;;;;;;5013292;28;20332;-57
2023/09/24 14:40:55;;;;;;;3.00;1.30;;;;;;;;;;5013386;28;20668;-57